createdAt,value
2023-02-04T00:04:25.142Z,103169.00
2023-02-04T00:09:27.912Z,103161.09
2023-02-04T00:14:30.750Z,103158.25
2023-02-04T00:19:35.008Z,103166.59
2023-02-04T00:24:38.783Z,103167.16
2023-02-04T00:29:41.661Z,103167.81
2023-02-04T00:34:48.931Z,103170.97
2023-02-04T00:39:52.058Z,103175.91
2023-02-04T00:44:55.064Z,103162.66
2023-02-04T00:50:01.086Z,103165.22
2023-02-04T00:55:04.512Z,103159.88
2023-02-04T01:00:08.625Z,103156.41
2023-02-04T01:05:12.831Z,103158.34
2023-02-04T01:10:16.220Z,103125.06
2023-02-04T01:15:19.367Z,103153.22
2023-02-04T01:20:23.670Z,103157.47
2023-02-04T01:25:26.553Z,103166.06
2023-02-04T01:30:31.194Z,103168.75
2023-02-04T01:35:35.657Z,103174.06
2023-02-04T01:40:38.716Z,103180.22
2023-02-04T01:45:41.717Z,103177.69
2023-02-04T01:50:45.878Z,103180.38
2023-02-04T01:55:48.914Z,103177.75
2023-02-04T02:00:52.372Z,103187.31
2023-02-04T02:05:56.783Z,103190.00
2023-02-04T02:11:02.158Z,103185.75
2023-02-04T02:16:05.796Z,103186.66
2023-02-04T02:21:11.143Z,103185.03
2023-02-04T02:26:16.924Z,103193.72
2023-02-04T02:31:21.817Z,103199.81
2023-02-04T02:36:24.727Z,103198.06
2023-02-04T02:41:28.942Z,103202.41
2023-02-04T02:46:31.895Z,103202.41
2023-02-04T02:51:34.754Z,103203.22
2023-02-04T02:56:39.963Z,103198.88
2023-02-04T03:01:43.482Z,103196.13
2023-02-04T03:06:47.396Z,103190.03
2023-02-04T03:11:51.639Z,103195.22
2023-02-04T03:16:55.520Z,103194.28
2023-02-04T03:21:58.763Z,103195.84
2023-02-04T03:27:03.140Z,103206.13
2023-02-04T03:32:06.527Z,103202.53
2023-02-04T03:37:09.382Z,103205.72
2023-02-04T03:42:13.577Z,103206.44
2023-02-04T03:47:16.431Z,103213.03
2023-02-04T03:52:20.268Z,103219.47
2023-02-04T03:57:24.367Z,103232.34
2023-02-04T04:02:27.298Z,103234.88
2023-02-04T04:07:30.210Z,103230.38
2023-02-04T04:12:34.414Z,103229.28
2023-02-04T04:17:37.273Z,103234.28
2023-02-04T04:22:40.389Z,103240.63
2023-02-04T04:27:44.602Z,103241.66
2023-02-04T04:32:47.408Z,103248.66
2023-02-04T04:37:50.284Z,103248.38
2023-02-04T04:42:54.570Z,103260.94
2023-02-04T04:47:57.377Z,103253.44
2023-02-04T04:53:00.225Z,103257.47
2023-02-04T04:58:04.328Z,103252.09
2023-02-04T05:03:07.693Z,103248.59
2023-02-04T05:08:13.024Z,103257.56
2023-02-04T05:13:17.179Z,103271.56
2023-02-04T05:18:20.017Z,103274.25
2023-02-04T05:23:22.878Z,103275.19
2023-02-04T05:28:27.052Z,103268.41
2023-02-04T05:33:29.872Z,103271.16
2023-02-04T05:38:32.642Z,103264.88
2023-02-04T05:43:36.890Z,103282.31
2023-02-04T05:48:41.002Z,103275.38
2023-02-04T05:53:43.904Z,103280.75
2023-02-04T05:58:48.084Z,103282.53
2023-02-04T06:03:50.901Z,103288.63
2023-02-04T06:08:53.745Z,103305.06
2023-02-04T06:13:57.956Z,103316.28
2023-02-04T06:19:00.744Z,103323.25
2023-02-04T06:24:05.216Z,103325.75
2023-02-04T06:29:09.654Z,103338.72
2023-02-04T06:34:13.994Z,103349.06
2023-02-04T06:39:16.838Z,103359.44
2023-02-04T06:44:20.892Z,103365.63
2023-02-04T06:49:25.136Z,103366.66
2023-02-04T06:54:27.937Z,103371.97
2023-02-04T06:59:33.134Z,103378.97
2023-02-04T07:04:35.991Z,103386.00
2023-02-04T07:09:40.583Z,103385.22
2023-02-04T07:14:44.849Z,103386.06
2023-02-04T07:19:47.641Z,103397.22
2023-02-04T07:24:50.425Z,103397.34
2023-02-04T07:29:54.550Z,103403.47
2023-02-04T07:34:57.423Z,103414.81
2023-02-04T07:40:00.218Z,103422.47
2023-02-04T07:45:04.714Z,103427.66
2023-02-04T07:50:09.454Z,103440.97
2023-02-04T07:55:12.231Z,103446.50
2023-02-04T08:00:17.307Z,103438.09
2023-02-04T08:05:20.132Z,103440.88
2023-02-04T08:10:22.917Z,103454.16
2023-02-04T08:15:27.113Z,103450.91
2023-02-04T08:20:30.392Z,103461.72
2023-02-04T08:25:33.468Z,103467.84
2023-02-04T08:30:37.740Z,103473.28
2023-02-04T08:35:40.551Z,103480.41
2023-02-04T08:40:43.306Z,103492.75
2023-02-04T08:45:47.523Z,103497.31
2023-02-04T08:50:50.413Z,103500.75
2023-02-04T08:55:53.280Z,103515.63
2023-02-04T09:00:57.543Z,103519.41
2023-02-04T09:06:00.445Z,103522.38
2023-02-04T09:11:03.379Z,103535.91
2023-02-04T09:16:08.125Z,103533.75
2023-02-04T09:21:33.959Z,103546.25
2023-02-04T09:26:36.806Z,103551.75
2023-02-04T09:31:41.082Z,103566.81
2023-02-04T09:36:43.992Z,103582.75
2023-02-04T09:41:46.878Z,103589.22
2023-02-04T09:46:52.350Z,103597.94
2023-02-04T09:51:55.557Z,103596.16
2023-02-04T09:56:59.478Z,103612.19
2023-02-04T10:02:04.430Z,103614.97
2023-02-04T10:07:11.229Z,103623.59
2023-02-04T10:12:13.977Z,103630.41
2023-02-04T10:17:21.965Z,103633.16
2023-02-04T10:22:24.738Z,103645.81
2023-02-04T10:27:27.611Z,103647.28
2023-02-04T10:32:33.417Z,103653.63
2023-02-04T10:37:36.245Z,103636.59
2023-02-04T10:42:49.548Z,103644.16
2023-02-04T10:47:55.392Z,103653.63
2023-02-04T10:53:20.397Z,103651.28
2023-02-04T10:58:27.213Z,103640.75
2023-02-04T11:03:32.234Z,103644.34
2023-02-04T11:08:36.446Z,103631.31
2023-02-04T11:13:44.383Z,103629.97
2023-02-04T11:18:51.452Z,103626.44
2023-02-04T11:24:05.743Z,103628.84
2023-02-04T11:29:17.301Z,103624.50
2023-02-04T11:34:30.756Z,103628.88
2023-02-04T11:39:36.638Z,103627.47
2023-02-04T11:44:39.430Z,103621.88
2023-02-04T11:49:43.803Z,103625.22
2023-02-04T11:54:54.204Z,103622.75
2023-02-04T11:59:57.126Z,103636.78
2023-02-04T12:05:11.984Z,103625.88
2023-02-04T12:10:25.064Z,103633.72
2023-02-04T12:15:35.864Z,103638.56
2023-02-04T12:20:40.587Z,103639.09
2023-02-04T12:25:43.483Z,103638.47
2023-02-04T12:30:46.429Z,103635.59
2023-02-04T12:35:50.751Z,103634.00
2023-02-04T12:40:53.607Z,103636.25
2023-02-04T12:45:56.504Z,103637.22
2023-02-04T12:51:00.786Z,103631.97
2023-02-04T12:56:03.753Z,103626.88
2023-02-04T13:01:06.740Z,103625.91
2023-02-04T13:06:10.889Z,103623.16
2023-02-04T13:11:13.704Z,103618.91
2023-02-04T13:16:18.150Z,103611.94
2023-02-04T13:21:22.349Z,103607.78
2023-02-04T13:26:25.209Z,103604.19
2023-02-04T13:31:28.292Z,103618.53
2023-02-04T13:36:32.611Z,103614.91
2023-02-04T13:41:36.113Z,103624.94
2023-02-04T13:46:39.120Z,103622.38
2023-02-04T13:51:44.975Z,103613.19
2023-02-04T13:56:47.917Z,103620.84
2023-02-04T14:01:50.898Z,103623.41
2023-02-04T14:06:56.348Z,103630.06
2023-02-04T14:11:59.185Z,103638.88
2023-02-04T14:17:02.045Z,103639.53
2023-02-04T14:22:06.362Z,103631.09
2023-02-04T14:27:09.603Z,103629.34
2023-02-04T14:32:12.552Z,103638.47
2023-02-04T14:37:16.772Z,103641.91
2023-02-04T14:42:19.600Z,103646.00
2023-02-04T14:47:22.450Z,103644.91
2023-02-04T14:52:26.714Z,103642.97
2023-02-04T14:57:29.560Z,103652.38
2023-02-04T15:02:32.542Z,103654.16
2023-02-04T15:07:36.997Z,103646.75
2023-02-04T15:12:39.899Z,103655.44
2023-02-04T15:17:42.739Z,103659.75
2023-02-04T15:22:51.725Z,103657.16
2023-02-04T15:27:54.668Z,103658.13
2023-02-04T15:32:57.590Z,103659.75
2023-02-04T15:38:01.881Z,103655.28
2023-02-04T15:43:07.292Z,103649.88
2023-02-04T15:48:10.346Z,103657.63
2023-02-04T15:53:14.622Z,103667.91
2023-02-04T15:58:17.723Z,103668.78
2023-02-04T16:03:20.620Z,103668.59
2023-02-04T16:08:24.859Z,103670.91
2023-02-04T16:13:27.887Z,103665.63
2023-02-04T16:18:30.833Z,103659.38
2023-02-04T16:23:35.111Z,103660.28
2023-02-04T16:28:38.014Z,103674.97
2023-02-04T16:33:41.024Z,103666.19
2023-02-04T16:38:45.239Z,103654.03
2023-02-04T16:43:48.111Z,103652.31
2023-02-04T16:48:51.057Z,103651.47
2023-02-04T16:53:55.316Z,103656.69
2023-02-04T16:58:58.148Z,103653.22
2023-02-04T17:04:01.051Z,103664.53
2023-02-04T17:09:05.415Z,103659.28
2023-02-04T17:14:10.761Z,103664.41
2023-02-04T17:19:14.482Z,103656.56
2023-02-04T17:24:18.794Z,103648.59
2023-02-04T17:29:22.183Z,103645.06
2023-02-04T17:34:25.105Z,103642.38
2023-02-04T17:39:29.476Z,103642.28
2023-02-04T17:44:32.433Z,103649.13
2023-02-04T17:49:35.388Z,103649.13
2023-02-04T17:54:39.655Z,103643.03
2023-02-04T17:59:42.486Z,103643.16
2023-02-04T18:04:45.452Z,103638.03
2023-02-04T18:09:49.650Z,103638.72
2023-02-04T18:14:52.546Z,103647.31
2023-02-04T18:19:55.345Z,103642.78
2023-02-04T18:24:59.571Z,103656.88
2023-02-04T18:30:02.631Z,103644.72
2023-02-04T18:35:26.609Z,103654.94
2023-02-04T18:40:32.029Z,103656.34
2023-02-04T18:45:36.621Z,103646.63
2023-02-04T18:50:39.443Z,103648.25
2023-02-04T18:55:47.049Z,103650.81
2023-02-04T19:00:51.430Z,103647.28
2023-02-04T19:05:55.721Z,103641.91
2023-02-04T19:11:01.181Z,103642.13
2023-02-04T19:16:08.293Z,103640.41
2023-02-04T19:21:25.922Z,103635.06
2023-02-04T19:26:37.080Z,103655.00
2023-02-04T19:31:39.893Z,103645.47
2023-02-04T19:36:42.722Z,103629.84
2023-02-04T19:41:48.570Z,103623.63
2023-02-04T19:46:51.356Z,103624.53
2023-02-04T19:51:55.586Z,103615.94
2023-02-04T19:56:59.759Z,103605.41
2023-02-04T20:02:16.495Z,103607.94
2023-02-04T20:07:20.588Z,103613.13
2023-02-04T20:12:26.097Z,103636.47
2023-02-04T20:17:37.580Z,103641.72
2023-02-04T20:22:45.779Z,103659.91
2023-02-04T20:27:55.344Z,103661.66
2023-02-04T20:32:59.798Z,103662.69
2023-02-04T20:38:11.851Z,103648.91
2023-02-04T20:43:19.063Z,103641.22
2023-02-04T20:48:32.669Z,103641.91
2023-02-04T20:53:39.242Z,103637.53
2023-02-04T20:58:45.036Z,103627.00
2023-02-04T21:03:50.262Z,103624.44
2023-02-04T21:08:53.929Z,103618.38
2023-02-04T21:13:58.118Z,103626.28
2023-02-04T21:19:00.842Z,103617.66
2023-02-04T21:24:03.762Z,103628.81
2023-02-04T21:29:08.092Z,103630.03
2023-02-04T21:34:10.863Z,103616.97
2023-02-04T21:39:13.750Z,103617.84
2023-02-04T21:44:18.224Z,103616.13
2023-02-04T21:49:21.050Z,103607.34
2023-02-04T21:54:23.833Z,103615.94
2023-02-04T21:59:28.005Z,103604.78
2023-02-04T22:04:30.791Z,103611.75
2023-02-04T22:09:33.651Z,103607.38
2023-02-04T22:14:55.493Z,103602.22
2023-02-04T22:19:58.365Z,103601.34
2023-02-04T22:25:01.802Z,103592.56
2023-02-04T22:30:07.546Z,103602.94
2023-02-04T22:35:11.414Z,103586.44
2023-02-04T22:40:15.791Z,103575.16
2023-02-04T22:45:20.065Z,103567.28
2023-02-04T22:50:22.833Z,103555.03
2023-02-04T22:55:25.641Z,103555.06
2023-02-04T23:00:29.890Z,103533.28
2023-02-04T23:05:32.951Z,103532.38
2023-02-04T23:10:37.593Z,103542.69
2023-02-04T23:15:43.171Z,103543.44
2023-02-04T23:20:45.978Z,103540.81
2023-02-04T23:25:48.929Z,103540.66
2023-02-04T23:30:53.160Z,103524.97
2023-02-04T23:35:55.923Z,103518.84
2023-02-04T23:41:00.090Z,103526.41
2023-02-04T23:46:04.380Z,103511.69
2023-02-04T23:51:07.319Z,103499.50
2023-02-04T23:56:10.189Z,103487.38
